sensor_id;sensor_type;location;lat;lon;timestamp;temperature;humidity
14850;DHT22;7517;48.400;11.770;2023-12-20T00:02:20;10.60;66.10
14850;DHT22;7517;48.400;11.770;2023-12-20T00:04:47;10.60;65.90
14850;DHT22;7517;48.400;11.770;2023-12-20T00:07:14;10.60;65.90
14850;DHT22;7517;48.400;11.770;2023-12-20T00:09:42;10.60;65.70
14850;DHT22;7517;48.400;11.770;2023-12-20T00:12:10;10.60;65.70
14850;DHT22;7517;48.400;11.770;2023-12-20T00:14:37;10.70;65.70
14850;DHT22;7517;48.400;11.770;2023-12-20T00:17:04;10.70;65.70
14850;DHT22;7517;48.400;11.770;2023-12-20T00:19:32;10.80;65.70
14850;DHT22;7517;48.400;11.770;2023-12-20T00:21:59;10.70;65.60
14850;DHT22;7517;48.400;11.770;2023-12-20T00:24:26;10.80;65.50
14850;DHT22;7517;48.400;11.770;2023-12-20T00:26:53;10.80;65.30
14850;DHT22;7517;48.400;11.770;2023-12-20T00:29:22;10.80;65.30
14850;DHT22;7517;48.400;11.770;2023-12-20T00:31:49;10.80;65.10
14850;DHT22;7517;48.400;11.770;2023-12-20T00:34:16;10.80;65.10
14850;DHT22;7517;48.400;11.770;2023-12-20T00:36:43;10.90;65.10
14850;DHT22;7517;48.400;11.770;2023-12-20T00:39:10;10.90;64.90
14850;DHT22;7517;48.400;11.770;2023-12-20T00:41:37;10.90;65.00
14850;DHT22;7517;48.400;11.770;2023-12-20T00:44:04;10.90;65.20
14850;DHT22;7517;48.400;11.770;2023-12-20T00:46:33;10.90;65.10
14850;DHT22;7517;48.400;11.770;2023-12-20T00:49:00;11.00;64.90
14850;DHT22;7517;48.400;11.770;2023-12-20T00:51:28;11.00;65.10
14850;DHT22;7517;48.400;11.770;2023-12-20T00:53:55;11.00;64.90
14850;DHT22;7517;48.400;11.770;2023-12-20T00:56:22;11.00;64.80
14850;DHT22;7517;48.400;11.770;2023-12-20T00:58:49;11.00;64.70
14850;DHT22;7517;48.400;11.770;2023-12-20T01:01:16;11.00;64.60
14850;DHT22;7517;48.400;11.770;2023-12-20T01:03:45;11.00;65.40
14850;DHT22;7517;48.400;11.770;2023-12-20T01:06:12;11.10;64.50
14850;DHT22;7517;48.400;11.770;2023-12-20T01:08:39;11.10;64.60
14850;DHT22;7517;48.400;11.770;2023-12-20T01:11:07;11.10;64.60
14850;DHT22;7517;48.400;11.770;2023-12-20T01:13:34;11.10;64.50
14850;DHT22;7517;48.400;11.770;2023-12-20T01:16:02;11.10;64.60
14850;DHT22;7517;48.400;11.770;2023-12-20T01:18:29;11.10;64.70
14850;DHT22;7517;48.400;11.770;2023-12-20T01:21:01;11.10;64.70
14850;DHT22;7517;48.400;11.770;2023-12-20T01:23:29;11.10;64.10
14850;DHT22;7517;48.400;11.770;2023-12-20T01:25:57;11.10;64.50
14850;DHT22;7517;48.400;11.770;2023-12-20T01:28:25;11.20;64.40
14850;DHT22;7517;48.400;11.770;2023-12-20T01:30:52;11.20;64.70
14850;DHT22;7517;48.400;11.770;2023-12-20T01:33:19;11.20;64.70
14850;DHT22;7517;48.400;11.770;2023-12-20T01:35:46;11.20;64.70
14850;DHT22;7517;48.400;11.770;2023-12-20T01:38:15;11.20;64.80
14850;DHT22;7517;48.400;11.770;2023-12-20T01:40:44;11.30;64.50
14850;DHT22;7517;48.400;11.770;2023-12-20T01:43:11;11.30;65.30
14850;DHT22;7517;48.400;11.770;2023-12-20T01:45:39;11.30;64.60
14850;DHT22;7517;48.400;11.770;2023-12-20T01:48:07;11.30;64.40
14850;DHT22;7517;48.400;11.770;2023-12-20T01:50:36;11.30;64.40
14850;DHT22;7517;48.400;11.770;2023-12-20T01:53:07;11.30;64.70
14850;DHT22;7517;48.400;11.770;2023-12-20T01:55:39;11.40;64.50
14850;DHT22;7517;48.400;11.770;2023-12-20T01:58:09;11.40;64.40
14850;DHT22;7517;48.400;11.770;2023-12-20T02:00:37;11.40;64.40
14850;DHT22;7517;48.400;11.770;2023-12-20T02:03:05;11.40;64.60
14850;DHT22;7517;48.400;11.770;2023-12-20T02:05:34;11.40;64.70
14850;DHT22;7517;48.400;11.770;2023-12-20T02:08:02;11.40;64.50
14850;DHT22;7517;48.400;11.770;2023-12-20T02:10:30;11.40;64.40
14850;DHT22;7517;48.400;11.770;2023-12-20T02:12:58;11.40;64.40
14850;DHT22;7517;48.400;11.770;2023-12-20T02:15:26;11.50;64.40
14850;DHT22;7517;48.400;11.770;2023-12-20T02:17:53;11.50;64.70
14850;DHT22;7517;48.400;11.770;2023-12-20T02:20:21;11.50;65.30
14850;DHT22;7517;48.400;11.770;2023-12-20T02:22:50;11.50;64.60
14850;DHT22;7517;48.400;11.770;2023-12-20T02:25:17;11.50;64.50
14850;DHT22;7517;48.400;11.770;2023-12-20T02:27:44;11.50;64.60
14850;DHT22;7517;48.400;11.770;2023-12-20T02:30:11;11.50;64.50
14850;DHT22;7517;48.400;11.770;2023-12-20T02:32:38;11.50;64.40
14850;DHT22;7517;48.400;11.770;2023-12-20T02:35:06;11.50;64.40
14850;DHT22;7517;48.400;11.770;2023-12-20T02:37:33;11.50;64.60
14850;DHT22;7517;48.400;11.770;2023-12-20T02:40:02;11.50;64.70
14850;DHT22;7517;48.400;11.770;2023-12-20T02:42:30;11.50;64.60
14850;DHT22;7517;48.400;11.770;2023-12-20T02:44:58;11.50;64.70
14850;DHT22;7517;48.400;11.770;2023-12-20T02:47:25;11.50;64.50
14850;DHT22;7517;48.400;11.770;2023-12-20T02:49:52;11.50;64.60
14850;DHT22;7517;48.400;11.770;2023-12-20T02:52:19;11.50;64.50
14850;DHT22;7517;48.400;11.770;2023-12-20T02:54:46;11.40;64.30
14850;DHT22;7517;48.400;11.770;2023-12-20T02:57:15;11.40;64.30
14850;DHT22;7517;48.400;11.770;2023-12-20T02:59:42;11.40;65.00
14850;DHT22;7517;48.400;11.770;2023-12-20T03:02:09;11.40;64.40
14850;DHT22;7517;48.400;11.770;2023-12-20T03:04:36;11.40;64.40
14850;DHT22;7517;48.400;11.770;2023-12-20T03:07:04;11.40;64.40
14850;DHT22;7517;48.400;11.770;2023-12-20T03:09:31;11.40;64.50
14850;DHT22;7517;48.400;11.770;2023-12-20T03:11:58;11.40;64.40
14850;DHT22;7517;48.400;11.770;2023-12-20T03:14:26;11.40;64.40
14850;DHT22;7517;48.400;11.770;2023-12-20T03:16:54;11.40;64.30
14850;DHT22;7517;48.400;11.770;2023-12-20T03:19:21;11.40;64.40
14850;DHT22;7517;48.400;11.770;2023-12-20T03:21:48;11.50;64.40
14850;DHT22;7517;48.400;11.770;2023-12-20T03:24:15;11.40;64.40
14850;DHT22;7517;48.400;11.770;2023-12-20T03:26:43;11.50;64.50
14850;DHT22;7517;48.400;11.770;2023-12-20T03:29:10;11.50;64.50
14850;DHT22;7517;48.400;11.770;2023-12-20T03:31:38;11.50;64.70
14850;DHT22;7517;48.400;11.770;2023-12-20T03:34:05;11.50;64.50
14850;DHT22;7517;48.400;11.770;2023-12-20T03:36:32;11.50;64.60
14850;DHT22;7517;48.400;11.770;2023-12-20T03:39:00;11.50;64.60
14850;DHT22;7517;48.400;11.770;2023-12-20T03:41:27;11.50;64.60
14850;DHT22;7517;48.400;11.770;2023-12-20T03:43:54;11.60;64.90
14850;DHT22;7517;48.400;11.770;2023-12-20T03:46:21;11.60;64.90
14850;DHT22;7517;48.400;11.770;2023-12-20T03:48:50;11.60;64.90
14850;DHT22;7517;48.400;11.770;2023-12-20T03:51:17;11.60;64.90
14850;DHT22;7517;48.400;11.770;2023-12-20T03:53:44;11.60;65.00
14850;DHT22;7517;48.400;11.770;2023-12-20T03:56:11;11.60;65.20
14850;DHT22;7517;48.400;11.770;2023-12-20T03:58:38;11.60;65.20
14850;DHT22;7517;48.400;11.770;2023-12-20T04:01:09;11.60;66.00
14850;DHT22;7517;48.400;11.770;2023-12-20T04:03:38;11.60;65.20
14850;DHT22;7517;48.400;11.770;2023-12-20T04:06:07;11.60;65.70
14850;DHT22;7517;48.400;11.770;2023-12-20T04:08:34;11.60;65.90
14850;DHT22;7517;48.400;11.770;2023-12-20T04:11:01;11.60;66.20
14850;DHT22;7517;48.400;11.770;2023-12-20T04:13:28;11.50;66.30
14850;DHT22;7517;48.400;11.770;2023-12-20T04:15:55;11.50;66.70
14850;DHT22;7517;48.400;11.770;2023-12-20T04:18:22;11.50;67.20
14850;DHT22;7517;48.400;11.770;2023-12-20T04:20:50;11.40;67.40
14850;DHT22;7517;48.400;11.770;2023-12-20T04:23:18;11.40;67.70
14850;DHT22;7517;48.400;11.770;2023-12-20T04:25:46;11.40;68.00
14850;DHT22;7517;48.400;11.770;2023-12-20T04:28:13;11.30;68.20
14850;DHT22;7517;48.400;11.770;2023-12-20T04:30:40;11.30;68.70
14850;DHT22;7517;48.400;11.770;2023-12-20T04:33:08;11.20;69.10
14850;DHT22;7517;48.400;11.770;2023-12-20T04:35:35;11.20;69.30
14850;DHT22;7517;48.400;11.770;2023-12-20T04:38:02;11.10;69.20
14850;DHT22;7517;48.400;11.770;2023-12-20T04:40:31;11.10;69.60
14850;DHT22;7517;48.400;11.770;2023-12-20T04:42:58;11.00;69.80
14850;DHT22;7517;48.400;11.770;2023-12-20T04:45:25;11.00;70.10
14850;DHT22;7517;48.400;11.770;2023-12-20T04:47:52;11.00;70.40
14850;DHT22;7517;48.400;11.770;2023-12-20T04:50:19;10.90;70.40
14850;DHT22;7517;48.400;11.770;2023-12-20T04:52:47;10.90;70.80
14850;DHT22;7517;48.400;11.770;2023-12-20T04:55:15;10.80;71.10
14850;DHT22;7517;48.400;11.770;2023-12-20T04:57:44;10.80;71.40
14850;DHT22;7517;48.400;11.770;2023-12-20T05:00:12;10.80;71.70
14850;DHT22;7517;48.400;11.770;2023-12-20T05:02:40;10.80;71.90
14850;DHT22;7517;48.400;11.770;2023-12-20T05:05:08;10.70;72.20
14850;DHT22;7517;48.400;11.770;2023-12-20T05:07:35;10.70;72.50
14850;DHT22;7517;48.400;11.770;2023-12-20T05:10:03;10.70;72.60
14850;DHT22;7517;48.400;11.770;2023-12-20T05:12:31;10.70;72.60
14850;DHT22;7517;48.400;11.770;2023-12-20T05:14:59;10.70;72.90
14850;DHT22;7517;48.400;11.770;2023-12-20T05:17:26;10.60;73.00
14850;DHT22;7517;48.400;11.770;2023-12-20T05:20:01;10.60;73.20
14850;DHT22;7517;48.400;11.770;2023-12-20T05:22:28;10.60;73.50
14850;DHT22;7517;48.400;11.770;2023-12-20T05:24:56;10.60;73.60
14850;DHT22;7517;48.400;11.770;2023-12-20T05:27:23;10.50;73.80
14850;DHT22;7517;48.400;11.770;2023-12-20T05:29:50;10.50;74.00
14850;DHT22;7517;48.400;11.770;2023-12-20T05:32:18;10.50;74.10
14850;DHT22;7517;48.400;11.770;2023-12-20T05:34:46;10.50;74.30
14850;DHT22;7517;48.400;11.770;2023-12-20T05:37:13;10.50;74.30
14850;DHT22;7517;48.400;11.770;2023-12-20T05:39:40;10.50;74.50
14850;DHT22;7517;48.400;11.770;2023-12-20T05:42:07;10.50;74.70
14850;DHT22;7517;48.400;11.770;2023-12-20T05:44:35;10.50;74.90
14850;DHT22;7517;48.400;11.770;2023-12-20T05:47:03;10.50;75.10
14850;DHT22;7517;48.400;11.770;2023-12-20T05:49:31;10.50;75.10
14850;DHT22;7517;48.400;11.770;2023-12-20T05:51:59;10.50;75.10
14850;DHT22;7517;48.400;11.770;2023-12-20T05:54:26;11.30;75.70
14850;DHT22;7517;48.400;11.770;2023-12-20T05:56:53;10.50;75.20
14850;DHT22;7517;48.400;11.770;2023-12-20T05:59:20;10.50;75.30
14850;DHT22;7517;48.400;11.770;2023-12-20T06:01:47;10.50;75.40
14850;DHT22;7517;48.400;11.770;2023-12-20T06:04:14;10.50;75.50
14850;DHT22;7517;48.400;11.770;2023-12-20T06:06:43;10.50;75.40
14850;DHT22;7517;48.400;11.770;2023-12-20T06:09:11;10.50;75.50
14850;DHT22;7517;48.400;11.770;2023-12-20T06:11:38;10.50;75.60
14850;DHT22;7517;48.400;11.770;2023-12-20T06:14:05;10.50;75.70
14850;DHT22;7517;48.400;11.770;2023-12-20T06:16:32;10.50;75.80
14850;DHT22;7517;48.400;11.770;2023-12-20T06:18:59;10.50;75.80
14850;DHT22;7517;48.400;11.770;2023-12-20T06:21:27;10.40;75.80
14850;DHT22;7517;48.400;11.770;2023-12-20T06:23:58;10.50;75.90
14850;DHT22;7517;48.400;11.770;2023-12-20T06:26:26;10.40;76.10
14850;DHT22;7517;48.400;11.770;2023-12-20T06:28:53;10.40;76.10
14850;DHT22;7517;48.400;11.770;2023-12-20T06:31:22;10.40;76.20
14850;DHT22;7517;48.400;11.770;2023-12-20T06:33:49;10.40;76.30
14850;DHT22;7517;48.400;11.770;2023-12-20T06:36:23;10.40;76.40
14850;DHT22;7517;48.400;11.770;2023-12-20T06:38:50;10.40;76.70
14850;DHT22;7517;48.400;11.770;2023-12-20T06:41:19;10.40;76.70
14850;DHT22;7517;48.400;11.770;2023-12-20T06:43:46;10.40;76.70
14850;DHT22;7517;48.400;11.770;2023-12-20T06:46:13;10.40;76.90
14850;DHT22;7517;48.400;11.770;2023-12-20T06:48:42;10.40;77.10
14850;DHT22;7517;48.400;11.770;2023-12-20T06:51:12;10.30;77.00
14850;DHT22;7517;48.400;11.770;2023-12-20T06:53:40;10.30;77.10
14850;DHT22;7517;48.400;11.770;2023-12-20T06:56:09;10.30;77.00
14850;DHT22;7517;48.400;11.770;2023-12-20T06:58:38;10.30;77.20
14850;DHT22;7517;48.400;11.770;2023-12-20T07:01:11;10.30;77.30
14850;DHT22;7517;48.400;11.770;2023-12-20T07:03:38;10.30;77.30
14850;DHT22;7517;48.400;11.770;2023-12-20T07:06:06;10.30;77.30
14850;DHT22;7517;48.400;11.770;2023-12-20T07:08:33;10.40;77.30
14850;DHT22;7517;48.400;11.770;2023-12-20T07:11:00;10.40;77.30
14850;DHT22;7517;48.400;11.770;2023-12-20T07:13:27;10.40;77.10
14850;DHT22;7517;48.400;11.770;2023-12-20T07:15:56;10.40;77.10
14850;DHT22;7517;48.400;11.770;2023-12-20T07:18:23;10.40;77.00
14850;DHT22;7517;48.400;11.770;2023-12-20T07:20:50;10.40;77.00
14850;DHT22;7517;48.400;11.770;2023-12-20T07:23:17;10.40;76.90
14850;DHT22;7517;48.400;11.770;2023-12-20T07:25:45;10.40;76.80
14850;DHT22;7517;48.400;11.770;2023-12-20T07:28:12;10.40;77.10
14850;DHT22;7517;48.400;11.770;2023-12-20T07:30:39;10.40;76.90
14850;DHT22;7517;48.400;11.770;2023-12-20T07:33:08;10.40;76.80
14850;DHT22;7517;48.400;11.770;2023-12-20T07:35:35;10.40;76.70
14850;DHT22;7517;48.400;11.770;2023-12-20T07:38:03;10.40;76.70
14850;DHT22;7517;48.400;11.770;2023-12-20T07:40:30;10.40;76.70
14850;DHT22;7517;48.400;11.770;2023-12-20T07:42:57;10.40;76.60
14850;DHT22;7517;48.400;11.770;2023-12-20T07:45:24;10.40;76.60
14850;DHT22;7517;48.400;11.770;2023-12-20T07:47:51;10.30;76.40
14850;DHT22;7517;48.400;11.770;2023-12-20T07:50:20;10.30;76.40
14850;DHT22;7517;48.400;11.770;2023-12-20T07:52:47;10.30;76.40
14850;DHT22;7517;48.400;11.770;2023-12-20T07:55:14;10.40;76.60
14850;DHT22;7517;48.400;11.770;2023-12-20T07:57:41;10.20;76.50
14850;DHT22;7517;48.400;11.770;2023-12-20T08:00:10;10.20;76.50
14850;DHT22;7517;48.400;11.770;2023-12-20T08:02:38;10.20;76.60
14850;DHT22;7517;48.400;11.770;2023-12-20T08:05:06;10.20;76.60
14850;DHT22;7517;48.400;11.770;2023-12-20T08:07:35;10.20;76.60
14850;DHT22;7517;48.400;11.770;2023-12-20T08:10:03;10.20;76.60
14850;DHT22;7517;48.400;11.770;2023-12-20T08:12:31;10.20;76.60
14850;DHT22;7517;48.400;11.770;2023-12-20T08:14:59;10.20;76.70
14850;DHT22;7517;48.400;11.770;2023-12-20T08:17:26;10.20;76.70
14850;DHT22;7517;48.400;11.770;2023-12-20T08:19:53;10.20;76.70
14850;DHT22;7517;48.400;11.770;2023-12-20T08:22:20;10.20;76.80
14850;DHT22;7517;48.400;11.770;2023-12-20T08:24:49;10.20;76.80
14850;DHT22;7517;48.400;11.770;2023-12-20T08:27:16;10.20;76.70
14850;DHT22;7517;48.400;11.770;2023-12-20T08:29:44;10.20;76.90
14850;DHT22;7517;48.400;11.770;2023-12-20T08:32:11;10.30;76.90
14850;DHT22;7517;48.400;11.770;2023-12-20T08:34:38;10.30;77.30
14850;DHT22;7517;48.400;11.770;2023-12-20T08:37:05;10.30;77.10
14850;DHT22;7517;48.400;11.770;2023-12-20T08:39:32;10.30;77.00
14850;DHT22;7517;48.400;11.770;2023-12-20T08:42:01;10.30;77.10
14850;DHT22;7517;48.400;11.770;2023-12-20T08:44:28;10.30;77.20
14850;DHT22;7517;48.400;11.770;2023-12-20T08:46:56;10.30;77.30
14850;DHT22;7517;48.400;11.770;2023-12-20T08:49:23;10.30;77.30
14850;DHT22;7517;48.400;11.770;2023-12-20T08:51:51;10.30;77.30
14850;DHT22;7517;48.400;11.770;2023-12-20T08:54:18;10.40;77.40
14850;DHT22;7517;48.400;11.770;2023-12-20T08:56:45;10.40;77.50
14850;DHT22;7517;48.400;11.770;2023-12-20T08:59:14;10.40;77.40
14850;DHT22;7517;48.400;11.770;2023-12-20T09:01:41;10.40;77.50
14850;DHT22;7517;48.400;11.770;2023-12-20T09:04:08;10.50;77.60
14850;DHT22;7517;48.400;11.770;2023-12-20T09:06:35;10.50;77.60
14850;DHT22;7517;48.400;11.770;2023-12-20T09:09:02;10.60;77.60
14850;DHT22;7517;48.400;11.770;2023-12-20T09:11:29;10.60;77.50
14850;DHT22;7517;48.400;11.770;2023-12-20T09:13:57;10.60;77.60
14850;DHT22;7517;48.400;11.770;2023-12-20T09:16:25;10.70;77.80
14850;DHT22;7517;48.400;11.770;2023-12-20T09:18:52;10.70;77.70
14850;DHT22;7517;48.400;11.770;2023-12-20T09:21:19;10.80;77.60
14850;DHT22;7517;48.400;11.770;2023-12-20T09:23:47;10.80;77.50
14850;DHT22;7517;48.400;11.770;2023-12-20T09:26:15;10.80;78.10
14850;DHT22;7517;48.400;11.770;2023-12-20T09:28:42;10.90;77.40
14850;DHT22;7517;48.400;11.770;2023-12-20T09:31:09;10.90;77.30
14850;DHT22;7517;48.400;11.770;2023-12-20T09:33:37;11.00;77.10
14850;DHT22;7517;48.400;11.770;2023-12-20T09:36:05;11.00;76.90
14850;DHT22;7517;48.400;11.770;2023-12-20T09:38:33;11.00;76.90
14850;DHT22;7517;48.400;11.770;2023-12-20T09:41:00;11.00;77.00
14850;DHT22;7517;48.400;11.770;2023-12-20T09:43:30;11.10;77.10
14850;DHT22;7517;48.400;11.770;2023-12-20T09:46:00;11.00;77.00
14850;DHT22;7517;48.400;11.770;2023-12-20T09:48:43;11.00;76.90
14850;DHT22;7517;48.400;11.770;2023-12-20T09:51:13;11.00;76.70
14850;DHT22;7517;48.400;11.770;2023-12-20T09:53:43;11.00;77.00
14850;DHT22;7517;48.400;11.770;2023-12-20T09:56:11;11.00;77.00
14850;DHT22;7517;48.400;11.770;2023-12-20T09:58:39;11.00;77.00
14850;DHT22;7517;48.400;11.770;2023-12-20T10:01:07;11.00;76.90
14850;DHT22;7517;48.400;11.770;2023-12-20T10:03:34;11.10;77.10
14850;DHT22;7517;48.400;11.770;2023-12-20T10:06:04;11.10;77.30
14850;DHT22;7517;48.400;11.770;2023-12-20T10:08:31;11.10;77.40
14850;DHT22;7517;48.400;11.770;2023-12-20T10:10:58;11.10;77.50
14850;DHT22;7517;48.400;11.770;2023-12-20T10:13:28;11.10;77.50
14850;DHT22;7517;48.400;11.770;2023-12-20T10:15:55;11.20;77.40
14850;DHT22;7517;48.400;11.770;2023-12-20T10:18:23;11.30;77.40
14850;DHT22;7517;48.400;11.770;2023-12-20T10:20:50;11.30;77.40
14850;DHT22;7517;48.400;11.770;2023-12-20T10:23:18;11.30;77.30
14850;DHT22;7517;48.400;11.770;2023-12-20T10:25:56;11.30;77.00
14850;DHT22;7517;48.400;11.770;2023-12-20T10:28:24;11.40;76.80
14850;DHT22;7517;48.400;11.770;2023-12-20T10:30:53;11.40;76.80
14850;DHT22;7517;48.400;11.770;2023-12-20T10:33:24;11.40;76.60
14850;DHT22;7517;48.400;11.770;2023-12-20T10:35:52;11.40;76.50
14850;DHT22;7517;48.400;11.770;2023-12-20T10:38:21;11.40;76.40
14850;DHT22;7517;48.400;11.770;2023-12-20T10:40:49;11.40;76.30
14850;DHT22;7517;48.400;11.770;2023-12-20T10:43:21;11.40;76.40
14850;DHT22;7517;48.400;11.770;2023-12-20T10:45:51;11.40;76.40
14850;DHT22;7517;48.400;11.770;2023-12-20T10:48:19;11.40;76.40
14850;DHT22;7517;48.400;11.770;2023-12-20T10:50:48;11.40;76.20
14850;DHT22;7517;48.400;11.770;2023-12-20T10:53:16;11.40;76.20
14850;DHT22;7517;48.400;11.770;2023-12-20T10:55:46;11.40;76.30
14850;DHT22;7517;48.400;11.770;2023-12-20T10:58:16;11.40;76.30
14850;DHT22;7517;48.400;11.770;2023-12-20T11:00:47;11.40;76.40
14850;DHT22;7517;48.400;11.770;2023-12-20T11:03:19;11.40;76.40
14850;DHT22;7517;48.400;11.770;2023-12-20T11:05:53;11.40;76.40
14850;DHT22;7517;48.400;11.770;2023-12-20T11:08:33;11.50;76.30
14850;DHT22;7517;48.400;11.770;2023-12-20T11:11:10;11.40;76.40
14850;DHT22;7517;48.400;11.770;2023-12-20T11:13:55;11.50;76.40
14850;DHT22;7517;48.400;11.770;2023-12-20T11:16:25;11.50;76.50
14850;DHT22;7517;48.400;11.770;2023-12-20T11:18:52;11.50;76.70
14850;DHT22;7517;48.400;11.770;2023-12-20T11:21:19;11.60;77.10
14850;DHT22;7517;48.400;11.770;2023-12-20T11:23:47;11.60;77.00
14850;DHT22;7517;48.400;11.770;2023-12-20T11:26:22;11.60;76.70
14850;DHT22;7517;48.400;11.770;2023-12-20T11:28:54;11.70;76.50
14850;DHT22;7517;48.400;11.770;2023-12-20T11:31:21;11.60;76.50
14850;DHT22;7517;48.400;11.770;2023-12-20T11:33:48;11.70;77.20
14850;DHT22;7517;48.400;11.770;2023-12-20T11:36:18;11.70;76.60
14850;DHT22;7517;48.400;11.770;2023-12-20T11:38:56;11.70;76.90
14850;DHT22;7517;48.400;11.770;2023-12-20T11:41:26;11.70;76.90
14850;DHT22;7517;48.400;11.770;2023-12-20T11:43:54;11.70;77.00
14850;DHT22;7517;48.400;11.770;2023-12-20T11:46:22;11.70;77.10
14850;DHT22;7517;48.400;11.770;2023-12-20T11:48:49;11.70;76.80
14850;DHT22;7517;48.400;11.770;2023-12-20T11:51:17;11.70;76.60
14850;DHT22;7517;48.400;11.770;2023-12-20T11:53:44;11.70;76.80
14850;DHT22;7517;48.400;11.770;2023-12-20T11:56:11;11.80;76.80
14850;DHT22;7517;48.400;11.770;2023-12-20T11:58:40;11.80;76.40
14850;DHT22;7517;48.400;11.770;2023-12-20T12:01:08;11.80;76.20
14850;DHT22;7517;48.400;11.770;2023-12-20T12:03:35;11.80;76.30
14850;DHT22;7517;48.400;11.770;2023-12-20T12:06:02;11.80;76.20
14850;DHT22;7517;48.400;11.770;2023-12-20T12:08:30;11.80;75.80
14850;DHT22;7517;48.400;11.770;2023-12-20T12:10:58;11.80;75.50
14850;DHT22;7517;48.400;11.770;2023-12-20T12:13:25;11.80;75.50
14850;DHT22;7517;48.400;11.770;2023-12-20T12:15:54;11.90;75.20
14850;DHT22;7517;48.400;11.770;2023-12-20T12:18:21;11.90;75.00
14850;DHT22;7517;48.400;11.770;2023-12-20T12:20:49;11.80;74.80
14850;DHT22;7517;48.400;11.770;2023-12-20T12:23:23;11.90;74.60
14850;DHT22;7517;48.400;11.770;2023-12-20T12:25:50;11.90;74.40
14850;DHT22;7517;48.400;11.770;2023-12-20T12:28:18;11.80;75.30
14850;DHT22;7517;48.400;11.770;2023-12-20T12:30:57;11.90;75.40
14850;DHT22;7517;48.400;11.770;2023-12-20T12:33:25;11.90;74.10
14850;DHT22;7517;48.400;11.770;2023-12-20T12:35:52;11.90;74.70
14850;DHT22;7517;48.400;11.770;2023-12-20T12:38:20;11.90;74.50
14850;DHT22;7517;48.400;11.770;2023-12-20T12:40:48;11.90;74.70
14850;DHT22;7517;48.400;11.770;2023-12-20T12:43:16;11.90;74.00
14850;DHT22;7517;48.400;11.770;2023-12-20T12:45:43;12.00;74.00
14850;DHT22;7517;48.400;11.770;2023-12-20T12:48:12;12.00;74.00
14850;DHT22;7517;48.400;11.770;2023-12-20T12:50:39;12.00;73.80
14850;DHT22;7517;48.400;11.770;2023-12-20T12:53:06;12.00;73.50
14850;DHT22;7517;48.400;11.770;2023-12-20T12:55:35;12.00;73.10
14850;DHT22;7517;48.400;11.770;2023-12-20T12:58:02;12.00;72.70
14850;DHT22;7517;48.400;11.770;2023-12-20T13:00:30;11.90;72.50
14850;DHT22;7517;48.400;11.770;2023-12-20T13:02:57;11.90;72.50
14850;DHT22;7517;48.400;11.770;2023-12-20T13:05:25;11.90;72.50
14850;DHT22;7517;48.400;11.770;2023-12-20T13:07:53;11.90;72.10
14850;DHT22;7517;48.400;11.770;2023-12-20T13:10:22;11.90;72.30
14850;DHT22;7517;48.400;11.770;2023-12-20T13:12:49;11.80;72.20
14850;DHT22;7517;48.400;11.770;2023-12-20T13:15:17;11.80;72.10
14850;DHT22;7517;48.400;11.770;2023-12-20T13:17:45;11.80;71.90
14850;DHT22;7517;48.400;11.770;2023-12-20T13:20:12;11.80;71.80
14850;DHT22;7517;48.400;11.770;2023-12-20T13:22:41;11.80;71.70
14850;DHT22;7517;48.400;11.770;2023-12-20T13:25:08;11.80;71.60
14850;DHT22;7517;48.400;11.770;2023-12-20T13:27:35;11.80;71.60
14850;DHT22;7517;48.400;11.770;2023-12-20T13:30:03;11.80;71.40
14850;DHT22;7517;48.400;11.770;2023-12-20T13:32:31;11.80;71.30
14850;DHT22;7517;48.400;11.770;2023-12-20T13:34:58;11.80;71.20
14850;DHT22;7517;48.400;11.770;2023-12-20T13:37:25;11.70;71.30
14850;DHT22;7517;48.400;11.770;2023-12-20T13:39:54;11.80;71.40
14850;DHT22;7517;48.400;11.770;2023-12-20T13:42:21;11.70;71.10
14850;DHT22;7517;48.400;11.770;2023-12-20T13:44:49;11.70;70.80
14850;DHT22;7517;48.400;11.770;2023-12-20T13:47:16;11.70;70.60
14850;DHT22;7517;48.400;11.770;2023-12-20T13:49:43;11.70;70.40
14850;DHT22;7517;48.400;11.770;2023-12-20T13:52:11;11.70;70.20
14850;DHT22;7517;48.400;11.770;2023-12-20T13:54:38;11.70;69.90
14850;DHT22;7517;48.400;11.770;2023-12-20T13:57:06;11.60;70.00
14850;DHT22;7517;48.400;11.770;2023-12-20T13:59:34;11.60;70.00
14850;DHT22;7517;48.400;11.770;2023-12-20T14:02:01;11.60;69.90
14850;DHT22;7517;48.400;11.770;2023-12-20T14:04:29;11.60;69.60
14850;DHT22;7517;48.400;11.770;2023-12-20T14:06:56;11.50;69.50
14850;DHT22;7517;48.400;11.770;2023-12-20T14:09:23;11.50;69.30
14850;DHT22;7517;48.400;11.770;2023-12-20T14:11:51;11.50;69.20
14850;DHT22;7517;48.400;11.770;2023-12-20T14:14:19;11.40;69.20
14850;DHT22;7517;48.400;11.770;2023-12-20T14:16:46;11.40;68.90
14850;DHT22;7517;48.400;11.770;2023-12-20T14:19:14;11.40;68.90
14850;DHT22;7517;48.400;11.770;2023-12-20T14:21:41;11.30;68.60
14850;DHT22;7517;48.400;11.770;2023-12-20T14:24:10;11.20;68.40
14850;DHT22;7517;48.400;11.770;2023-12-20T14:26:39;11.20;68.30
14850;DHT22;7517;48.400;11.770;2023-12-20T14:29:06;11.20;68.50
14850;DHT22;7517;48.400;11.770;2023-12-20T14:31:36;11.10;68.10
14850;DHT22;7517;48.400;11.770;2023-12-20T14:34:04;11.10;67.80
14850;DHT22;7517;48.400;11.770;2023-12-20T14:36:32;11.00;67.60
14850;DHT22;7517;48.400;11.770;2023-12-20T14:38:59;10.90;67.60
14850;DHT22;7517;48.400;11.770;2023-12-20T14:41:33;10.90;67.40
14850;DHT22;7517;48.400;11.770;2023-12-20T14:44:00;10.80;67.00
14850;DHT22;7517;48.400;11.770;2023-12-20T14:46:30;10.80;67.30
14850;DHT22;7517;48.400;11.770;2023-12-20T14:48:58;10.70;67.30
14850;DHT22;7517;48.400;11.770;2023-12-20T14:51:27;10.70;67.10
14850;DHT22;7517;48.400;11.770;2023-12-20T14:53:54;10.60;67.30
14850;DHT22;7517;48.400;11.770;2023-12-20T14:56:23;10.60;67.20
14850;DHT22;7517;48.400;11.770;2023-12-20T14:58:51;10.50;67.10
14850;DHT22;7517;48.400;11.770;2023-12-20T15:01:18;10.40;67.00
14850;DHT22;7517;48.400;11.770;2023-12-20T15:03:47;10.30;67.00
14850;DHT22;7517;48.400;11.770;2023-12-20T15:06:16;10.20;67.20
14850;DHT22;7517;48.400;11.770;2023-12-20T15:08:43;10.20;67.20
14850;DHT22;7517;48.400;11.770;2023-12-20T15:11:11;10.20;68.00
14850;DHT22;7517;48.400;11.770;2023-12-20T15:13:40;10.10;67.10
14850;DHT22;7517;48.400;11.770;2023-12-20T15:16:07;10.00;67.10
14850;DHT22;7517;48.400;11.770;2023-12-20T15:18:34;10.00;67.20
14850;DHT22;7517;48.400;11.770;2023-12-20T15:21:02;9.90;67.30
14850;DHT22;7517;48.400;11.770;2023-12-20T15:23:32;9.90;67.50
14850;DHT22;7517;48.400;11.770;2023-12-20T15:26:00;9.80;67.60
14850;DHT22;7517;48.400;11.770;2023-12-20T15:28:27;9.80;68.20
14850;DHT22;7517;48.400;11.770;2023-12-20T15:30:54;9.80;67.40
14850;DHT22;7517;48.400;11.770;2023-12-20T15:33:22;9.70;67.50
14850;DHT22;7517;48.400;11.770;2023-12-20T15:35:50;9.70;67.70